Time;durP1;ratioP1;P1;durP2;ratioP2;P2;SDS_P1;SDS_P2;PMS_P1;PMS_P2;Temp;Humidity;BMP_temperature;BMP_pressure;BME280_temperature;BME280_humidity;BME280_pressure;Samples;Min_cycle;Max_cycle;Signal;HPM_P1;HPM_P2
2022/07/27 00:01:13;;;;;;;4.30;1.77;;;14.50;99.90;;;;;;5059820;28;20197;-63
2022/07/27 00:03:43;;;;;;;2.10;1.90;;;14.50;99.90;;;;;;5059241;28;20704;-62
2022/07/27 00:06:12;;;;;;;2.03;1.60;;;14.40;99.90;;;;;;5058614;28;20273;-63
2022/07/27 00:08:41;;;;;;;4.80;1.77;;;14.50;99.90;;;;;;5070383;28;20235;-63
2022/07/27 00:11:11;;;;;;;1.93;1.50;;;14.50;99.90;;;;;;5059573;28;20262;-62
2022/07/27 00:13:40;;;;;;;4.27;2.17;;;14.50;99.90;;;;;;5065706;28;20200;-63
2022/07/27 00:16:08;;;;;;;3.77;1.73;;;14.50;99.90;;;;;;5060309;28;20205;-62
2022/07/27 00:18:37;;;;;;;2.33;1.77;;;14.50;99.90;;;;;;5101357;28;20237;-63
2022/07/27 00:21:06;;;;;;;2.30;1.70;;;14.50;99.90;;;;;;5068324;28;20192;-62
2022/07/27 00:23:35;;;;;;;3.27;1.90;;;14.50;99.90;;;;;;5064919;28;20211;-62
2022/07/27 00:26:03;;;;;;;3.30;2.40;;;14.50;99.90;;;;;;5067173;28;20204;-62
2022/07/27 00:28:33;;;;;;;3.00;1.70;;;14.50;99.90;;;;;;5080588;28;20197;-62
2022/07/27 00:31:02;;;;;;;3.07;1.73;;;14.40;99.90;;;;;;5057792;28;20251;-62
2022/07/27 00:33:30;;;;;;;2.30;1.70;;;14.40;99.90;;;;;;5066321;28;20226;-62
2022/07/27 00:36:00;;;;;;;2.10;1.90;;;14.30;99.90;;;;;;5068496;28;20555;-62
2022/07/27 00:38:29;;;;;;;2.13;1.97;;;14.30;99.90;;;;;;5065225;28;20196;-62
2022/07/27 00:40:58;;;;;;;6.67;2.00;;;14.30;99.90;;;;;;5063133;28;21850;-62
2022/07/27 00:43:27;;;;;;;4.30;2.07;;;14.20;99.90;;;;;;5061926;28;20740;-63
2022/07/27 00:45:57;;;;;;;3.40;2.03;;;14.20;99.90;;;;;;5065189;28;20195;-63
2022/07/27 00:48:31;;;;;;;1.83;1.73;;;14.10;99.90;;;;;;5066111;28;20643;-62
2022/07/27 00:51:00;;;;;;;2.60;1.80;;;14.10;99.90;;;;;;5062861;28;20687;-62
2022/07/27 00:53:29;;;;;;;2.73;2.30;;;14.10;99.90;;;;;;5062328;28;20322;-63
2022/07/27 00:55:57;;;;;;;1.83;1.73;;;14.10;99.90;;;;;;5065839;28;20223;-62
2022/07/27 00:58:26;;;;;;;8.07;2.30;;;14.10;99.90;;;;;;5056545;28;20204;-63
2022/07/27 01:00:55;;;;;;;1.83;1.70;;;14.00;99.90;;;;;;5062983;28;20203;-62
2022/07/27 01:03:24;;;;;;;3.37;2.00;;;14.00;99.90;;;;;;5067695;28;20261;-63
2022/07/27 01:05:57;;;;;;;5.20;2.23;;;13.90;99.90;;;;;;5066051;28;20201;-63
2022/07/27 01:08:28;;;;;;;2.80;2.00;;;13.90;99.90;;;;;;5063342;28;20243;-63
2022/07/27 01:10:58;;;;;;;4.57;2.10;;;13.80;99.90;;;;;;5060943;28;20204;-62
2022/07/27 01:13:26;;;;;;;3.20;2.10;;;13.70;99.90;;;;;;5068726;28;20196;-62
2022/07/27 01:15:55;;;;;;;4.00;2.20;;;13.70;99.90;;;;;;5095759;28;20196;-63
2022/07/27 01:18:31;;;;;;;2.37;1.90;;;13.60;99.90;;;;;;5067406;28;20334;-63
2022/07/27 01:21:01;;;;;;;3.67;2.00;;;13.60;99.90;;;;;;5061129;28;20847;-63
2022/07/27 01:23:32;;;;;;;3.83;2.00;;;13.50;99.90;;;;;;5067455;28;20196;-62
2022/07/27 01:26:01;;;;;;;2.30;2.10;;;13.50;99.90;;;;;;5058563;28;20607;-62
2022/07/27 01:28:29;;;;;;;2.73;2.17;;;13.40;99.90;;;;;;5100505;28;20196;-62
2022/07/27 01:30:57;;;;;;;6.23;2.00;;;13.40;99.90;;;;;;5064785;28;20199;-62
2022/07/27 01:33:26;;;;;;;2.33;2.00;;;13.30;99.90;;;;;;5066507;28;20214;-62
2022/07/27 01:35:57;;;;;;;7.40;2.10;;;13.30;99.90;;;;;;5068331;28;20196;-62
2022/07/27 01:38:25;;;;;;;3.80;2.27;;;13.20;99.90;;;;;;5098120;28;20290;-63
2022/07/27 01:40:55;;;;;;;3.10;2.10;;;13.20;99.90;;;;;;5067502;28;20212;-62
2022/07/27 01:43:24;;;;;;;3.10;2.10;;;13.10;99.90;;;;;;5071723;28;20724;-63
2022/07/27 01:45:54;;;;;;;3.53;2.20;;;13.10;99.90;;;;;;5070599;28;20194;-63
2022/07/27 01:48:23;;;;;;;4.60;2.40;;;13.00;99.90;;;;;;5101992;28;20662;-62
2022/07/27 01:50:52;;;;;;;3.73;2.37;;;13.00;99.90;;;;;;5066258;28;20192;-62
2022/07/27 01:53:21;;;;;;;1.90;1.70;;;13.00;99.90;;;;;;5101731;28;20283;-63
2022/07/27 01:55:51;;;;;;;5.13;2.20;;;12.90;99.90;;;;;;5072128;28;20204;-62
2022/07/27 01:58:20;;;;;;;3.07;2.23;;;12.90;99.90;;;;;;5069186;28;20198;-62
2022/07/27 02:00:49;;;;;;;10.17;2.17;;;12.80;99.90;;;;;;5064735;28;20192;-63
2022/07/27 02:03:18;;;;;;;2.13;1.70;;;12.80;99.90;;;;;;5066393;28;20199;-63
2022/07/27 02:05:46;;;;;;;4.57;1.93;;;12.70;99.90;;;;;;5066126;28;20253;-63
2022/07/27 02:08:15;;;;;;;2.57;2.03;;;12.70;99.90;;;;;;5072114;28;20232;-63
2022/07/27 02:13:28;;;;;;;5.83;2.40;;;12.50;99.90;;;;;;5062926;28;20227;-62
2022/07/27 02:15:56;;;;;;;2.30;2.10;;;12.50;99.90;;;;;;5069473;28;20287;-63
2022/07/27 02:18:25;;;;;;;2.40;2.20;;;12.40;99.90;;;;;;5063011;28;20279;-62
2022/07/27 02:21:05;;;;;;;3.80;2.07;;;12.40;99.90;;;;;;5066093;28;20292;-62
2022/07/27 02:23:35;;;;;;;4.30;2.33;;;12.30;99.90;;;;;;5063209;28;20283;-62
2022/07/27 02:26:04;;;;;;;3.13;2.33;;;12.30;99.90;;;;;;5068797;28;20195;-62
2022/07/27 02:28:34;;;;;;;2.37;2.17;;;12.20;99.90;;;;;;5062324;28;20188;-62
2022/07/27 02:31:03;;;;;;;2.27;1.90;;;12.20;99.90;;;;;;5071026;28;20207;-62
2022/07/27 02:33:32;;;;;;;2.43;2.30;;;12.20;99.90;;;;;;5064635;28;20223;-62
2022/07/27 02:36:00;;;;;;;2.30;2.10;;;12.10;99.90;;;;;;5065172;28;20207;-62
2022/07/27 02:38:29;;;;;;;3.53;2.37;;;12.10;99.90;;;;;;5063809;28;20277;-62
2022/07/27 02:40:58;;;;;;;2.43;2.23;;;12.00;99.90;;;;;;5061030;28;20233;-63
2022/07/27 02:43:26;;;;;;;4.47;2.60;;;12.00;99.90;;;;;;5069444;28;20555;-62
2022/07/27 02:45:56;;;;;;;2.80;2.20;;;11.90;99.90;;;;;;5069922;28;20291;-63
2022/07/27 02:48:24;;;;;;;2.50;2.30;;;11.90;99.90;;;;;;5069288;28;20195;-62
2022/07/27 02:50:53;;;;;;;2.63;2.30;;;11.90;99.90;;;;;;5066363;28;20203;-62
2022/07/27 02:53:21;;;;;;;5.53;2.10;;;11.80;99.90;;;;;;5066031;28;20223;-62
2022/07/27 02:55:50;;;;;;;3.37;2.30;;;11.80;99.90;;;;;;5068632;28;20601;-63
2022/07/27 02:58:18;;;;;;;2.70;2.47;;;11.70;99.90;;;;;;5067229;28;20189;-62
2022/07/27 03:00:47;;;;;;;3.90;2.67;;;11.60;99.90;;;;;;5070224;28;20196;-62
2022/07/27 03:03:17;;;;;;;3.67;2.70;;;11.60;99.90;;;;;;5057370;28;20192;-63
2022/07/27 03:05:47;;;;;;;2.83;2.40;;;11.60;99.90;;;;;;5068095;28;20225;-63
2022/07/27 03:08:16;;;;;;;2.33;2.17;;;11.50;99.90;;;;;;5065108;28;20312;-62
2022/07/27 03:10:44;;;;;;;2.50;2.30;;;11.50;99.90;;;;;;5071845;28;20249;-62
2022/07/27 03:13:16;;;;;;;4.93;2.70;;;11.40;99.90;;;;;;5070463;28;20258;-62
2022/07/27 03:15:45;;;;;;;3.27;2.67;;;11.40;99.90;;;;;;5068885;28;20192;-62
2022/07/27 03:18:13;;;;;;;3.13;2.87;;;11.40;99.90;;;;;;5100989;28;20210;-62
2022/07/27 03:20:43;;;;;;;5.63;3.17;;;11.40;99.90;;;;;;5063683;28;20227;-62
2022/07/27 03:23:12;;;;;;;3.00;2.80;;;11.40;99.90;;;;;;5067402;28;20188;-62
2022/07/27 03:25:41;;;;;;;3.20;3.00;;;11.40;99.90;;;;;;5065333;28;20234;-62
2022/07/27 03:28:09;;;;;;;4.10;2.70;;;11.40;99.90;;;;;;5068716;28;20196;-63
2022/07/27 03:30:38;;;;;;;4.07;2.80;;;11.40;99.90;;;;;;5063844;28;20192;-63
2022/07/27 03:33:06;;;;;;;3.17;2.80;;;11.40;99.90;;;;;;5060931;28;20220;-63
2022/07/27 03:35:35;;;;;;;4.27;3.20;;;11.30;99.90;;;;;;5061051;28;20201;-62
2022/07/27 03:38:05;;;;;;;4.00;3.10;;;11.30;99.90;;;;;;5069159;28;20673;-62
2022/07/27 03:40:34;;;;;;;7.23;2.97;;;11.30;99.90;;;;;;5064886;28;20238;-62
2022/07/27 03:43:02;;;;;;;3.60;2.97;;;11.20;99.90;;;;;;5067394;28;20532;-62
2022/07/27 03:45:33;;;;;;;6.70;2.80;;;11.10;99.90;;;;;;5065143;28;20609;-62
2022/07/27 03:48:01;;;;;;;4.70;3.03;;;11.10;99.90;;;;;;5066009;28;20203;-62
2022/07/27 03:50:30;;;;;;;3.47;3.00;;;11.00;99.90;;;;;;5054132;28;20200;-62
2022/07/27 03:52:58;;;;;;;3.23;3.03;;;11.00;99.90;;;;;;5058987;28;20254;-62
2022/07/27 03:55:28;;;;;;;4.07;3.20;;;11.00;99.90;;;;;;5070773;28;20206;-62
2022/07/27 03:57:57;;;;;;;3.53;3.23;;;11.00;99.90;;;;;;5067159;28;20257;-62
2022/07/27 04:00:26;;;;;;;3.77;3.50;;;11.00;99.90;;;;;;5065652;28;20202;-62
2022/07/27 04:03:13;;;;;;;3.50;3.33;;;11.00;99.90;;;;;;5061185;28;20640;-62
2022/07/27 04:05:42;;;;;;;4.23;3.63;;;11.10;99.90;;;;;;5061662;28;20624;-62
2022/07/27 04:08:11;;;;;;;3.80;3.50;;;11.00;99.90;;;;;;5062031;28;20293;-62
2022/07/27 04:10:40;;;;;;;7.23;3.83;;;11.00;99.90;;;;;;5065128;28;20195;-62
2022/07/27 04:13:11;;;;;;;4.07;3.77;;;10.90;99.90;;;;;;5060571;28;20216;-62
2022/07/27 04:15:41;;;;;;;5.33;3.50;;;10.90;99.90;;;;;;5068004;28;20555;-62
2022/07/27 04:18:09;;;;;;;3.70;3.40;;;10.90;99.90;;;;;;5065624;28;20206;-62
2022/07/27 04:20:37;;;;;;;4.23;3.80;;;10.90;99.90;;;;;;5061544;28;20200;-62
2022/07/27 04:23:06;;;;;;;6.50;3.50;;;10.90;99.90;;;;;;5063345;28;20192;-63
2022/07/27 04:25:34;;;;;;;6.50;3.83;;;10.90;99.90;;;;;;5065334;28;20211;-62
2022/07/27 04:28:06;;;;;;;6.20;4.07;;;11.00;99.90;;;;;;5061035;28;20227;-62
2022/07/27 04:30:34;;;;;;;4.07;3.67;;;11.00;99.90;;;;;;5066232;28;20196;-62
2022/07/27 04:33:04;;;;;;;4.20;3.80;;;11.10;99.90;;;;;;5066764;28;20216;-62
2022/07/27 04:35:32;;;;;;;5.17;3.60;;;11.10;99.90;;;;;;5060104;28;20258;-62
2022/07/27 04:38:01;;;;;;;6.03;3.70;;;11.10;99.90;;;;;;5049892;28;20227;-62
2022/07/27 04:40:32;;;;;;;4.70;3.50;;;11.10;99.90;;;;;;5080720;28;20720;-62
2022/07/27 04:43:00;;;;;;;3.70;3.47;;;11.10;99.90;;;;;;5060919;28;20605;-62
2022/07/27 04:45:31;;;;;;;3.80;3.50;;;11.10;99.90;;;;;;5060420;28;20307;-62
2022/07/27 04:47:59;;;;;;;5.07;3.60;;;11.20;99.90;;;;;;5061775;28;20632;-62
2022/07/27 04:50:27;;;;;;;3.97;3.67;;;11.20;99.90;;;;;;5063088;28;20245;-62
2022/07/27 04:52:56;;;;;;;5.30;3.33;;;11.20;99.90;;;;;;5067375;28;20697;-62
2022/07/27 04:55:24;;;;;;;4.00;3.70;;;11.30;99.90;;;;;;5065372;28;20735;-63
2022/07/27 04:57:52;;;;;;;3.83;3.27;;;11.30;99.90;;;;;;5067057;28;20687;-62
2022/07/27 05:00:21;;;;;;;4.70;3.70;;;11.40;99.90;;;;;;5064008;28;20698;-63
2022/07/27 05:02:51;;;;;;;6.37;4.00;;;11.50;99.90;;;;;;5065071;28;20196;-62
2022/07/27 05:05:20;;;;;;;7.23;3.43;;;11.50;99.90;;;;;;5062835;28;20200;-62
2022/07/27 05:07:48;;;;;;;4.37;3.40;;;11.60;99.90;;;;;;5062463;28;20235;-62
2022/07/27 05:10:17;;;;;;;4.13;3.50;;;11.70;99.90;;;;;;5064521;28;20281;-62
2022/07/27 05:12:48;;;;;;;5.43;3.40;;;11.80;99.90;;;;;;5066444;28;20261;-62
2022/07/27 05:15:18;;;;;;;6.03;3.73;;;12.00;99.90;;;;;;5085541;28;20219;-62
2022/07/27 05:17:47;;;;;;;3.83;3.50;;;12.20;99.90;;;;;;5070227;28;20195;-62
2022/07/27 05:20:17;;;;;;;4.17;3.57;;;12.40;99.90;;;;;;5094092;28;20200;-62
2022/07/27 05:22:46;;;;;;;5.70;3.63;;;12.60;99.90;;;;;;5065782;28;20193;-63
2022/07/27 05:25:14;;;;;;;4.43;3.83;;;12.70;99.90;;;;;;5081760;28;20215;-62
2022/07/27 05:27:43;;;;;;;3.50;3.20;;;12.90;99.90;;;;;;5071841;28;20192;-62
2022/07/27 05:30:24;;;;;;;4.80;3.47;;;13.10;99.90;;;;;;5076422;28;20196;-63
2022/07/27 05:32:52;;;;;;;4.03;3.47;;;13.30;99.90;;;;;;5064434;28;20223;-63
2022/07/27 05:35:23;;;;;;;4.97;3.47;;;13.50;99.90;;;;;;5067173;28;20224;-62
2022/07/27 05:37:51;;;;;;;3.87;3.53;;;13.60;99.90;;;;;;5068477;28;20301;-63
2022/07/27 05:40:20;;;;;;;3.80;3.37;;;13.80;99.90;;;;;;5068095;28;20189;-63
2022/07/27 05:42:48;;;;;;;4.40;3.53;;;14.10;99.90;;;;;;5068040;28;20561;-62
2022/07/27 05:45:17;;;;;;;5.37;3.43;;;14.30;99.90;;;;;;5063947;28;20602;-63
2022/07/27 05:47:46;;;;;;;4.43;3.83;;;14.50;99.90;;;;;;5071951;28;20675;-63
2022/07/27 05:50:15;;;;;;;6.50;3.70;;;14.70;99.90;;;;;;5060840;28;20607;-63
2022/07/27 05:52:45;;;;;;;4.77;3.30;;;14.90;99.90;;;;;;5068799;28;20686;-62
2022/07/27 05:55:14;;;;;;;5.30;3.20;;;15.10;99.90;;;;;;5070596;28;20265;-63
2022/07/27 05:57:42;;;;;;;3.30;3.00;;;15.30;99.90;;;;;;5065253;28;20193;-63
2022/07/27 06:00:12;;;;;;;5.93;3.13;;;15.40;99.90;;;;;;5066654;28;20284;-63
2022/07/27 06:02:41;;;;;;;5.60;3.00;;;15.60;99.90;;;;;;5066377;28;20203;-63
2022/07/27 06:05:10;;;;;;;4.43;2.43;;;15.80;99.90;;;;;;5068602;28;20204;-63
2022/07/27 06:07:59;;;;;;;6.73;2.90;;;16.00;99.90;;;;;;5065300;28;20258;-63
2022/07/27 06:10:31;;;;;;;3.30;3.00;;;16.10;99.90;;;;;;5065118;28;20227;-63
2022/07/27 06:12:59;;;;;;;4.17;2.73;;;16.30;99.90;;;;;;5065218;28;20248;-63
2022/07/27 06:15:29;;;;;;;5.00;2.50;;;16.40;99.90;;;;;;5071653;28;20209;-63
2022/07/27 06:17:57;;;;;;;2.43;2.23;;;16.50;99.90;;;;;;5069295;28;20207;-62
2022/07/27 06:20:26;;;;;;;5.07;2.50;;;16.70;99.90;;;;;;5063382;28;20232;-63
2022/07/27 06:22:58;;;;;;;2.60;2.30;;;16.90;99.90;;;;;;5063511;28;20201;-63
2022/07/27 06:25:28;;;;;;;3.37;2.93;;;17.20;99.90;;;;;;5063019;28;20184;-63
2022/07/27 06:28:01;;;;;;;4.60;2.23;;;17.40;99.90;;;;;;5072257;28;20188;-63
2022/07/27 06:30:30;;;;;;;2.37;2.17;;;17.80;99.90;;;;;;5062743;28;20675;-63
2022/07/27 06:32:58;;;;;;;3.07;1.80;;;18.10;99.90;;;;;;5066978;28;20219;-63
2022/07/27 06:35:27;;;;;;;2.03;1.80;;;18.70;99.90;;;;;;5072266;28;20307;-63
2022/07/27 06:37:57;;;;;;;1.50;1.40;;;19.10;99.90;;;;;;5064028;28;20204;-63
2022/07/27 06:40:25;;;;;;;2.13;1.93;;;19.30;99.90;;;;;;5063452;28;20200;-63
2022/07/27 06:42:57;;;;;;;3.17;1.57;;;19.50;99.90;;;;;;5066109;28;20200;-63
2022/07/27 06:45:25;;;;;;;1.80;1.70;;;19.50;99.90;;;;;;5070980;28;20188;-62
2022/07/27 06:47:54;;;;;;;2.20;2.00;;;19.40;99.90;;;;;;5065545;28;20204;-62
2022/07/27 06:50:22;;;;;;;1.90;1.80;;;19.40;99.90;;;;;;5066858;28;20192;-63
2022/07/27 06:52:51;;;;;;;2.27;2.00;;;19.20;99.90;;;;;;5065248;28;20734;-63
2022/07/27 06:55:21;;;;;;;2.27;2.07;;;19.10;99.90;;;;;;5066751;28;20224;-63
2022/07/27 06:57:49;;;;;;;6.87;2.03;;;19.10;99.90;;;;;;5067029;28;20635;-62
2022/07/27 07:00:18;;;;;;;3.57;2.13;;;19.40;99.90;;;;;;5070075;28;20617;-63
2022/07/27 07:02:54;;;;;;;2.17;2.03;;;19.60;99.90;;;;;;5065249;28;20247;-63
2022/07/27 07:05:22;;;;;;;3.27;2.27;;;19.70;99.90;;;;;;5066676;28;20548;-63
2022/07/27 07:07:51;;;;;;;1.63;1.53;;;19.80;99.90;;;;;;5069236;28;20232;-63
2022/07/27 07:10:23;;;;;;;3.20;1.90;;;19.60;99.90;;;;;;5065372;28;20200;-63
2022/07/27 07:12:54;;;;;;;7.07;2.10;;;19.50;99.90;;;;;;5063091;28;20655;-63
2022/07/27 07:15:24;;;;;;;3.50;1.50;;;19.40;99.90;;;;;;5063278;28;20208;-63
2022/07/27 07:17:53;;;;;;;1.40;1.40;;;19.30;99.90;;;;;;5070758;28;20207;-63
2022/07/27 07:20:22;;;;;;;3.33;1.47;;;19.30;99.90;;;;;;5070291;28;20198;-63
2022/07/27 07:22:50;;;;;;;2.63;1.57;;;19.40;99.90;;;;;;5071768;28;20188;-63
2022/07/27 07:25:21;;;;;;;2.40;1.83;;;19.70;99.90;;;;;;5069797;28;20199;-63
2022/07/27 07:27:50;;;;;;;4.37;1.47;;;20.00;99.90;;;;;;5069305;28;20207;-63
2022/07/27 07:30:19;;;;;;;1.57;1.57;;;20.10;99.90;;;;;;5063023;28;20195;-63
2022/07/27 07:32:47;;;;;;;2.03;1.47;;;20.60;99.90;;;;;;5057617;28;20227;-64
2022/07/27 07:35:16;;;;;;;4.80;1.20;;;20.80;99.90;;;;;;5069599;28;20213;-63
2022/07/27 07:37:45;;;;;;;1.40;1.30;;;20.80;99.90;;;;;;5054692;28;20215;-64
2022/07/27 07:40:18;;;;;;;3.30;1.00;;;21.20;99.90;;;;;;5067971;28;20215;-63
2022/07/27 07:43:08;;;;;;;1.53;1.10;;;21.50;99.90;;;;;;5069247;28;20204;-63
2022/07/27 07:45:37;;;;;;;2.53;0.97;;;22.00;99.90;;;;;;5049689;28;20293;-64
2022/07/27 07:48:19;;;;;;;2.00;1.10;;;22.30;99.90;;;;;;5061866;28;20207;-63
2022/07/27 07:50:47;;;;;;;2.20;1.00;;;22.50;99.90;;;;;;5070792;28;20216;-63
2022/07/27 07:53:21;;;;;;;1.27;0.98;;;22.60;99.90;;;;;;5063260;28;20213;-63
2022/07/27 07:55:50;;;;;;;2.42;1.08;;;22.60;99.90;;;;;;5063883;28;20836;-63
2022/07/27 07:58:20;;;;;;;1.33;1.20;;;22.90;99.90;;;;;;5062975;28;20247;-63
2022/07/27 08:00:49;;;;;;;1.30;1.17;;;23.00;99.90;;;;;;5070457;28;20257;-63
2022/07/27 08:03:18;;;;;;;1.27;1.23;;;22.70;99.90;;;;;;5070590;28;20200;-63
2022/07/27 08:05:47;;;;;;;1.85;1.10;;;22.60;99.90;;;;;;5077692;28;20197;-63
2022/07/27 08:08:16;;;;;;;1.85;0.90;;;22.40;99.90;;;;;;5066687;28;20375;-63
2022/07/27 08:10:45;;;;;;;1.00;0.90;;;22.40;99.90;;;;;;5072064;28;20266;-63
2022/07/27 08:13:16;;;;;;;1.30;1.20;;;22.60;99.90;;;;;;5073351;28;20576;-63
2022/07/27 08:15:51;;;;;;;2.47;1.10;;;22.80;99.90;;;;;;5070619;28;20632;-63
2022/07/27 08:18:20;;;;;;;5.03;1.17;;;23.20;99.90;;;;;;5063971;28;20683;-63
2022/07/27 08:20:49;;;;;;;3.45;1.33;;;23.80;99.90;;;;;;5063152;28;20198;-63
2022/07/27 08:23:17;;;;;;;1.85;1.20;;;24.40;99.90;;;;;;5060191;28;20190;-63
2022/07/27 08:25:46;;;;;;;1.30;1.20;;;24.20;99.90;;;;;;5062621;28;20220;-63
2022/07/27 08:28:17;;;;;;;1.23;1.13;;;24.50;99.90;;;;;;5065035;28;20226;-63
2022/07/27 08:30:46;;;;;;;1.75;1.10;;;24.70;99.90;;;;;;5076716;28;20186;-63
2022/07/27 08:33:18;;;;;;;2.13;0.90;;;24.40;99.90;;;;;;5057042;28;20213;-63
2022/07/27 08:35:47;;;;;;;1.58;1.20;;;24.40;99.90;;;;;;5071422;28;20744;-63
2022/07/27 08:38:16;;;;;;;3.60;1.35;;;24.50;99.90;;;;;;5071475;28;20240;-63
2022/07/27 08:40:46;;;;;;;1.92;1.15;;;24.80;99.90;;;;;;5070111;28;20202;-63
2022/07/27 08:43:18;;;;;;;1.30;0.90;;;24.90;99.90;;;;;;5065986;28;20239;-63
2022/07/27 08:45:56;;;;;;;1.20;1.10;;;25.20;99.90;;;;;;5062159;28;20203;-63
2022/07/27 08:48:29;;;;;;;0.80;0.80;;;25.00;99.90;;;;;;5062065;28;20207;-63
2022/07/27 08:50:58;;;;;;;1.08;0.98;;;24.50;99.90;;;;;;5072125;28;20265;-63
2022/07/27 08:53:26;;;;;;;2.83;1.00;;;24.60;99.90;;;;;;5071566;28;20258;-63
2022/07/27 08:56:17;;;;;;;1.73;0.80;;;24.80;99.90;;;;;;5078194;28;20215;-63
2022/07/27 08:58:49;;;;;;;2.28;1.35;;;24.70;99.90;;;;;;5065586;28;20647;-63
2022/07/27 09:01:18;;;;;;;3.00;1.30;;;24.10;99.90;;;;;;5093934;28;20204;-63
2022/07/27 09:03:48;;;;;;;1.70;1.00;;;23.80;99.90;;;;;;5063510;28;20202;-63
2022/07/27 09:06:41;;;;;;;1.37;1.20;;;23.30;99.90;;;;;;5058025;28;20200;-62
2022/07/27 09:09:09;;;;;;;2.20;1.20;;;22.60;99.90;;;;;;5060960;28;20200;-62
2022/07/27 09:11:39;;;;;;;1.77;1.27;;;22.20;99.90;;;;;;5073780;28;20264;-62
2022/07/27 09:14:08;;;;;;;0.90;0.90;;;22.20;99.90;;;;;;5057743;28;20261;-63
2022/07/27 09:16:37;;;;;;;2.07;1.00;;;22.30;99.90;;;;;;5067134;28;20775;-63
2022/07/27 09:19:27;;;;;;;1.13;0.80;;;22.20;99.90;;;;;;5062839;28;20576;-63
2022/07/27 09:21:55;;;;;;;1.43;0.90;;;22.60;99.90;;;;;;5065515;28;20200;-63
2022/07/27 09:24:26;;;;;;;1.37;0.93;;;22.70;99.90;;;;;;5068074;28;20227;-63
2022/07/27 09:27:14;;;;;;;2.77;0.93;;;22.90;99.90;;;;;;5068161;28;20205;-63
2022/07/27 09:29:42;;;;;;;2.63;1.40;;;23.60;99.90;;;;;;5062705;28;20891;-63
2022/07/27 09:32:14;;;;;;;1.70;1.10;;;24.30;99.90;;;;;;5068154;28;20213;-63
2022/07/27 09:34:45;;;;;;;1.07;1.03;;;24.30;99.90;;;;;;5068637;28;20234;-63
2022/07/27 09:37:23;;;;;;;3.28;1.00;;;24.60;99.90;;;;;;5062924;28;20231;-63
2022/07/27 09:40:10;;;;;;;1.30;1.00;;;25.80;99.90;;;;;;5064512;28;20202;-63
2022/07/27 09:42:39;;;;;;;2.13;1.30;;;25.40;99.90;;;;;;5066830;28;20193;-63
2022/07/27 09:45:29;;;;;;;1.77;1.10;;;24.70;99.90;;;;;;5062543;28;20279;-63
2022/07/27 09:48:09;;;;;;;1.57;1.40;;;23.80;99.90;;;;;;5068269;28;20246;-63
2022/07/27 09:50:41;;;;;;;1.77;1.20;;;22.80;99.90;;;;;;5063210;28;20201;-62
2022/07/27 09:53:31;;;;;;;4.30;1.10;;;23.10;99.90;;;;;;5067061;28;20192;-63
2022/07/27 09:56:14;;;;;;;2.63;1.03;;;24.40;99.90;;;;;;5062046;28;20204;-63
2022/07/27 09:58:46;;;;;;;1.90;1.00;;;24.40;99.90;;;;;;5063262;28;20641;-63
2022/07/27 10:01:16;;;;;;;2.00;0.95;;;24.80;99.90;;;;;;5059074;28;20199;-63
2022/07/27 10:03:46;;;;;;;3.05;1.08;;;26.10;99.90;;;;;;5064489;28;20818;-63
2022/07/27 10:06:17;;;;;;;3.38;1.00;;;27.40;99.90;;;;;;5067383;28;20178;-63
2022/07/27 10:08:47;;;;;;;2.70;1.15;;;27.40;99.90;;;;;;5062537;28;20298;-63
2022/07/27 10:11:17;;;;;;;1.23;1.00;;;27.30;99.90;;;;;;5060141;28;20214;-63
2022/07/27 10:13:48;;;;;;;1.15;1.15;;;27.80;99.90;;;;;;5066003;28;20575;-64
2022/07/27 10:16:18;;;;;;;1.23;1.13;;;28.10;99.90;;;;;;5058612;28;20915;-63
2022/07/27 10:18:58;;;;;;;5.97;1.33;;;27.40;99.90;;;;;;5067842;28;20561;-63
2022/07/27 10:21:29;;;;;;;2.47;1.08;;;26.30;99.90;;;;;;5061691;28;20191;-63
2022/07/27 10:23:59;;;;;;;5.28;1.20;;;26.00;99.90;;;;;;5068639;28;20225;-63
2022/07/27 10:26:32;;;;;;;1.25;1.20;;;25.60;99.90;;;;;;5063301;28;20290;-63
2022/07/27 10:29:02;;;;;;;1.35;1.20;;;25.10;99.90;;;;;;5087041;28;20268;-63
2022/07/27 10:31:33;;;;;;;1.20;1.13;;;24.80;99.90;;;;;;5067998;28;20204;-63
2022/07/27 10:34:04;;;;;;;1.67;1.13;;;25.10;99.90;;;;;;5072720;28;20270;-63
2022/07/27 10:36:48;;;;;;;3.60;1.27;;;25.30;99.90;;;;;;5059671;28;20684;-63
2022/07/27 10:39:35;;;;;;;1.10;1.10;;;25.00;99.90;;;;;;5065825;28;20718;-63
2022/07/27 10:42:24;;;;;;;2.67;1.20;;;24.40;99.90;;;;;;5056724;28;20284;-63
2022/07/27 10:44:58;;;;;;;1.90;1.30;;;23.80;99.90;;;;;;5094655;28;20206;-63
2022/07/27 10:47:33;;;;;;;2.67;1.17;;;23.40;99.90;;;;;;5070016;28;20223;-63
2022/07/27 10:50:35;;;;;;;1.23;1.20;;;23.00;99.90;;;;;;5063053;28;20282;-62
2022/07/27 10:53:07;;;;;;;3.47;1.50;;;22.70;99.90;;;;;;5060729;28;20854;-63
2022/07/27 10:55:50;;;;;;;1.10;1.10;;;22.50;99.90;;;;;;5065253;28;20197;-63
2022/07/27 10:58:46;;;;;;;4.27;1.30;;;22.40;99.90;;;;;;5061687;28;20188;-62
2022/07/27 11:01:17;;;;;;;1.67;1.30;;;22.50;99.90;;;;;;5059644;28;20216;-63
2022/07/27 11:03:58;;;;;;;1.20;1.20;;;22.50;99.90;;;;;;5065395;28;20201;-63
2022/07/27 11:06:31;;;;;;;1.83;1.20;;;22.40;99.90;;;;;;5065471;28;20194;-63
2022/07/27 11:09:16;;;;;;;3.27;1.20;;;22.30;99.90;;;;;;5061672;28;20205;-62
2022/07/27 11:12:06;;;;;;;1.80;1.03;;;22.40;99.90;;;;;;5092823;28;20204;-63
2022/07/27 11:14:45;;;;;;;1.10;1.10;;;22.40;99.90;;;;;;5059691;28;20219;-63
2022/07/27 11:17:14;;;;;;;2.37;1.20;;;22.50;99.90;;;;;;5063039;28;20208;-63
2022/07/27 11:20:03;;;;;;;1.40;1.30;;;22.30;99.90;;;;;;5061869;28;20193;-63
2022/07/27 11:22:33;;;;;;;1.50;1.40;;;22.20;99.90;;;;;;5060142;28;20198;-62
2022/07/27 11:25:25;;;;;;;1.90;1.37;;;22.10;99.90;;;;;;5058373;28;20247;-63
2022/07/27 11:27:54;;;;;;;3.97;1.43;;;22.20;99.90;;;;;;5064075;28;20198;-62
2022/07/27 11:30:24;;;;;;;4.43;1.63;;;22.20;99.90;;;;;;5061923;28;20225;-63
2022/07/27 11:32:52;;;;;;;1.50;1.40;;;22.10;99.90;;;;;;5071604;28;20219;-62
2022/07/27 11:35:21;;;;;;;2.30;1.47;;;22.20;99.90;;;;;;5061888;28;20199;-62
2022/07/27 11:38:01;;;;;;;1.60;1.50;;;22.10;99.90;;;;;;5056051;28;20246;-62
2022/07/27 11:40:42;;;;;;;5.00;1.77;;;22.20;99.90;;;;;;5061982;28;20203;-62
2022/07/27 11:43:40;;;;;;;3.07;1.40;;;22.50;99.90;;;;;;5056960;28;20184;-62
2022/07/27 11:46:15;;;;;;;3.43;1.57;;;22.80;99.90;;;;;;5068090;28;20217;-62
2022/07/27 11:48:53;;;;;;;1.73;1.63;;;23.20;99.90;;;;;;5064982;28;20198;-63
2022/07/27 11:51:40;;;;;;;4.30;1.70;;;23.70;99.90;;;;;;5067020;28;20199;-62
2022/07/27 11:54:10;;;;;;;2.40;1.60;;;23.90;99.90;;;;;;5065783;28;20211;-62
2022/07/27 11:56:44;;;;;;;1.50;1.40;;;23.90;99.90;;;;;;5061753;28;20662;-63
2022/07/27 11:59:15;;;;;;;1.60;1.50;;;23.90;99.90;;;;;;5065121;28;20289;-62
2022/07/27 12:01:47;;;;;;;5.43;1.80;;;23.90;99.90;;;;;;5067203;28;20203;-62
2022/07/27 12:04:22;;;;;;;2.63;1.87;;;23.50;99.90;;;;;;5069508;28;20207;-63
2022/07/27 12:07:06;;;;;;;3.83;1.47;;;23.60;99.90;;;;;;5063654;28;20240;-63
2022/07/27 12:09:36;;;;;;;2.17;1.50;;;24.30;99.90;;;;;;5064565;28;20703;-63
2022/07/27 12:12:13;;;;;;;1.60;1.50;;;24.70;99.90;;;;;;5059202;28;20196;-62
2022/07/27 12:14:44;;;;;;;2.70;1.87;;;24.60;99.90;;;;;;5069272;28;20567;-62
2022/07/27 12:17:26;;;;;;;4.80;1.80;;;23.70;99.90;;;;;;5049862;28;20304;-62
2022/07/27 12:20:01;;;;;;;3.43;1.60;;;23.10;99.90;;;;;;5065016;28;20256;-62
2022/07/27 12:22:33;;;;;;;1.50;1.40;;;22.70;99.90;;;;;;5069673;28;20231;-62
2022/07/27 12:25:06;;;;;;;2.70;1.40;;;22.70;99.90;;;;;;5071853;28;20195;-62
2022/07/27 12:27:55;;;;;;;1.50;1.33;;;23.00;99.90;;;;;;5059092;28;20389;-62
2022/07/27 12:30:30;;;;;;;1.77;1.27;;;23.60;99.90;;;;;;5066140;28;20197;-62
2022/07/27 12:33:00;;;;;;;2.13;1.50;;;23.70;99.90;;;;;;5060178;28;20252;-63
2022/07/27 12:35:31;;;;;;;2.07;1.50;;;23.60;99.90;;;;;;5048376;28;20197;-62
2022/07/27 12:38:08;;;;;;;1.50;1.40;;;23.50;99.90;;;;;;5058312;28;20282;-62
2022/07/27 12:40:44;;;;;;;5.70;1.33;;;23.60;99.90;;;;;;5044601;28;20187;-62
2022/07/27 12:43:18;;;;;;;3.67;1.37;;;23.60;99.90;;;;;;5068808;28;20193;-62
2022/07/27 12:45:47;;;;;;;1.60;1.50;;;23.80;99.90;;;;;;5070040;28;20284;-62
2022/07/27 12:48:18;;;;;;;3.40;1.80;;;23.80;99.90;;;;;;5061127;28;20194;-62
2022/07/27 12:50:49;;;;;;;2.13;1.50;;;24.10;99.90;;;;;;5062352;28;20203;-62
2022/07/27 12:53:17;;;;;;;1.10;1.00;;;24.20;99.90;;;;;;5067088;28;20202;-62
2022/07/27 12:55:46;;;;;;;4.23;1.37;;;23.90;99.90;;;;;;5065820;28;20336;-62
2022/07/27 12:58:16;;;;;;;1.20;1.20;;;23.50;99.90;;;;;;5065149;28;20893;-62
2022/07/27 13:00:46;;;;;;;1.97;1.30;;;23.30;99.90;;;;;;5065505;28;20227;-63
2022/07/27 13:03:15;;;;;;;3.00;1.33;;;23.20;99.90;;;;;;5069455;28;20530;-63
2022/07/27 13:05:44;;;;;;;5.10;0.97;;;23.20;99.90;;;;;;5064149;28;20225;-62
2022/07/27 13:08:12;;;;;;;4.07;1.20;;;23.10;99.90;;;;;;5059160;28;20627;-62
2022/07/27 13:10:44;;;;;;;1.00;1.00;;;23.10;99.90;;;;;;5066749;28;20944;-62
2022/07/27 13:13:13;;;;;;;1.63;1.20;;;23.10;99.90;;;;;;5064159;28;20746;-62